sensor_id;sensor_type;location;lat;lon;timestamp;P1;durP1;ratioP1;P2;durP2;ratioP2
33491;SDS011;20010;51.488;7.232;2023-03-13T00:00:59;13.57;;;8.20;;
33491;SDS011;20010;51.488;7.232;2023-03-13T00:03:26;14.45;;;7.47;;
33491;SDS011;20010;51.488;7.232;2023-03-13T00:05:57;18.45;;;8.38;;
33491;SDS011;20010;51.488;7.232;2023-03-13T00:08:24;18.85;;;8.45;;
33491;SDS011;20010;51.488;7.232;2023-03-13T00:10:51;16.15;;;7.60;;
33491;SDS011;20010;51.488;7.232;2023-03-13T00:13:18;18.15;;;9.13;;
33491;SDS011;20010;51.488;7.232;2023-03-13T00:15:44;16.05;;;8.10;;
33491;SDS011;20010;51.488;7.232;2023-03-13T00:18:11;12.95;;;7.47;;
33491;SDS011;20010;51.488;7.232;2023-03-13T00:20:37;18.85;;;7.63;;
33491;SDS011;20010;51.488;7.232;2023-03-13T00:23:04;17.83;;;7.75;;
33491;SDS011;20010;51.488;7.232;2023-03-13T00:25:31;15.70;;;8.18;;
33491;SDS011;20010;51.488;7.232;2023-03-13T00:27:58;16.27;;;8.40;;
33491;SDS011;20010;51.488;7.232;2023-03-13T00:30:24;15.93;;;7.47;;
33491;SDS011;20010;51.488;7.232;2023-03-13T00:32:51;18.65;;;7.97;;
33491;SDS011;20010;51.488;7.232;2023-03-13T00:35:18;11.65;;;6.93;;
33491;SDS011;20010;51.488;7.232;2023-03-13T00:37:44;11.30;;;7.10;;
33491;SDS011;20010;51.488;7.232;2023-03-13T00:40:11;15.77;;;7.13;;
33491;SDS011;20010;51.488;7.232;2023-03-13T00:42:38;15.35;;;7.40;;
33491;SDS011;20010;51.488;7.232;2023-03-13T00:45:05;11.38;;;7.13;;
33491;SDS011;20010;51.488;7.232;2023-03-13T00:47:31;15.07;;;7.28;;
33491;SDS011;20010;51.488;7.232;2023-03-13T00:49:58;16.58;;;8.05;;
33491;SDS011;20010;51.488;7.232;2023-03-13T00:52:25;17.33;;;6.97;;
33491;SDS011;20010;51.488;7.232;2023-03-13T00:54:53;13.43;;;6.82;;
33491;SDS011;20010;51.488;7.232;2023-03-13T00:57:20;20.67;;;7.30;;
33491;SDS011;20010;51.488;7.232;2023-03-13T00:59:47;14.60;;;7.22;;
33491;SDS011;20010;51.488;7.232;2023-03-13T01:02:14;15.05;;;7.20;;
33491;SDS011;20010;51.488;7.232;2023-03-13T01:04:40;13.88;;;7.13;;
33491;SDS011;20010;51.488;7.232;2023-03-13T01:07:07;18.25;;;8.00;;
33491;SDS011;20010;51.488;7.232;2023-03-13T01:09:33;16.08;;;7.07;;
33491;SDS011;20010;51.488;7.232;2023-03-13T01:12:00;12.45;;;6.95;;
33491;SDS011;20010;51.488;7.232;2023-03-13T01:14:27;15.15;;;6.30;;
33491;SDS011;20010;51.488;7.232;2023-03-13T01:16:54;10.85;;;6.03;;
33491;SDS011;20010;51.488;7.232;2023-03-13T01:19:20;15.18;;;5.97;;
33491;SDS011;20010;51.488;7.232;2023-03-13T01:21:47;13.43;;;6.00;;
33491;SDS011;20010;51.488;7.232;2023-03-13T01:24:13;13.35;;;7.20;;
33491;SDS011;20010;51.488;7.232;2023-03-13T01:26:40;16.48;;;7.43;;
33491;SDS011;20010;51.488;7.232;2023-03-13T01:29:06;25.90;;;7.20;;
33491;SDS011;20010;51.488;7.232;2023-03-13T01:31:34;16.50;;;7.57;;
33491;SDS011;20010;51.488;7.232;2023-03-13T01:34:02;14.07;;;6.63;;
33491;SDS011;20010;51.488;7.232;2023-03-13T01:36:30;20.25;;;7.75;;
33491;SDS011;20010;51.488;7.232;2023-03-13T01:38:58;19.48;;;6.25;;
33491;SDS011;20010;51.488;7.232;2023-03-13T01:41:27;14.23;;;6.07;;
33491;SDS011;20010;51.488;7.232;2023-03-13T01:43:55;13.70;;;6.07;;
33491;SDS011;20010;51.488;7.232;2023-03-13T01:48:58;16.98;;;7.43;;
33491;SDS011;20010;51.488;7.232;2023-03-13T01:51:34;17.30;;;6.38;;
33491;SDS011;20010;51.488;7.232;2023-03-13T01:54:06;14.57;;;6.40;;
33491;SDS011;20010;51.488;7.232;2023-03-13T01:56:36;17.75;;;7.13;;
33491;SDS011;20010;51.488;7.232;2023-03-13T01:59:05;22.27;;;7.13;;
33491;SDS011;20010;51.488;7.232;2023-03-13T02:01:34;16.42;;;6.80;;
33491;SDS011;20010;51.488;7.232;2023-03-13T02:04:01;22.70;;;6.65;;
33491;SDS011;20010;51.488;7.232;2023-03-13T02:06:28;17.90;;;7.43;;
33491;SDS011;20010;51.488;7.232;2023-03-13T02:08:58;17.58;;;6.45;;
33491;SDS011;20010;51.488;7.232;2023-03-13T02:14:18;17.95;;;6.55;;
33491;SDS011;20010;51.488;7.232;2023-03-13T02:16:47;16.10;;;6.77;;
33491;SDS011;20010;51.488;7.232;2023-03-13T02:20:02;14.60;;;6.28;;
33491;SDS011;20010;51.488;7.232;2023-03-13T02:27:13;19.58;;;6.75;;
33491;SDS011;20010;51.488;7.232;2023-03-13T02:29:39;17.83;;;6.30;;
33491;SDS011;20010;51.488;7.232;2023-03-13T02:32:07;13.65;;;6.22;;
33491;SDS011;20010;51.488;7.232;2023-03-13T02:34:34;15.52;;;6.55;;
33491;SDS011;20010;51.488;7.232;2023-03-13T02:37:03;19.55;;;8.00;;
33491;SDS011;20010;51.488;7.232;2023-03-13T02:39:31;13.20;;;7.03;;
33491;SDS011;20010;51.488;7.232;2023-03-13T02:41:58;20.38;;;6.22;;
33491;SDS011;20010;51.488;7.232;2023-03-13T02:44:26;23.58;;;7.28;;
33491;SDS011;20010;51.488;7.232;2023-03-13T02:46:53;16.23;;;6.80;;
33491;SDS011;20010;51.488;7.232;2023-03-13T02:49:24;16.80;;;6.80;;
33491;SDS011;20010;51.488;7.232;2023-03-13T02:51:53;19.00;;;6.93;;
33491;SDS011;20010;51.488;7.232;2023-03-13T02:54:22;16.95;;;7.72;;
33491;SDS011;20010;51.488;7.232;2023-03-13T02:56:51;12.23;;;6.25;;
33491;SDS011;20010;51.488;7.232;2023-03-13T03:01:48;14.45;;;5.95;;
33491;SDS011;20010;51.488;7.232;2023-03-13T03:04:18;13.88;;;5.55;;
33491;SDS011;20010;51.488;7.232;2023-03-13T03:06:49;15.48;;;6.10;;
33491;SDS011;20010;51.488;7.232;2023-03-13T03:09:16;15.43;;;5.85;;
33491;SDS011;20010;51.488;7.232;2023-03-13T03:11:43;22.10;;;6.28;;
33491;SDS011;20010;51.488;7.232;2023-03-13T03:14:11;14.23;;;5.40;;
33491;SDS011;20010;51.488;7.232;2023-03-13T03:16:38;13.73;;;6.57;;
33491;SDS011;20010;51.488;7.232;2023-03-13T03:19:05;11.70;;;5.30;;
33491;SDS011;20010;51.488;7.232;2023-03-13T03:21:32;10.80;;;5.50;;
33491;SDS011;20010;51.488;7.232;2023-03-13T03:23:59;10.25;;;4.97;;
33491;SDS011;20010;51.488;7.232;2023-03-13T03:26:27;12.68;;;5.22;;
33491;SDS011;20010;51.488;7.232;2023-03-13T03:28:53;17.80;;;5.38;;
33491;SDS011;20010;51.488;7.232;2023-03-13T03:31:20;11.02;;;5.20;;
33491;SDS011;20010;51.488;7.232;2023-03-13T03:33:46;12.27;;;5.13;;
33491;SDS011;20010;51.488;7.232;2023-03-13T03:36:14;10.90;;;5.15;;
33491;SDS011;20010;51.488;7.232;2023-03-13T03:38:42;12.00;;;5.00;;
33491;SDS011;20010;51.488;7.232;2023-03-13T03:41:09;8.15;;;4.32;;
33491;SDS011;20010;51.488;7.232;2023-03-13T03:43:37;12.63;;;5.28;;
33491;SDS011;20010;51.488;7.232;2023-03-13T03:46:03;9.95;;;4.78;;
33491;SDS011;20010;51.488;7.232;2023-03-13T03:48:31;9.50;;;4.60;;
33491;SDS011;20010;51.488;7.232;2023-03-13T03:50:58;8.75;;;4.50;;
33491;SDS011;20010;51.488;7.232;2023-03-13T03:53:25;8.48;;;4.88;;
33491;SDS011;20010;51.488;7.232;2023-03-13T03:55:51;9.65;;;4.95;;
33491;SDS011;20010;51.488;7.232;2023-03-13T03:58:18;10.63;;;4.68;;
33491;SDS011;20010;51.488;7.232;2023-03-13T04:00:45;7.80;;;4.47;;
33491;SDS011;20010;51.488;7.232;2023-03-13T04:03:13;7.85;;;5.93;;
33491;SDS011;20010;51.488;7.232;2023-03-13T04:05:40;6.43;;;4.15;;
33491;SDS011;20010;51.488;7.232;2023-03-13T04:08:07;7.72;;;4.30;;
33491;SDS011;20010;51.488;7.232;2023-03-13T04:10:34;7.97;;;3.97;;
33491;SDS011;20010;51.488;7.232;2023-03-13T04:13:01;7.03;;;3.78;;
33491;SDS011;20010;51.488;7.232;2023-03-13T04:15:27;17.05;;;5.13;;
33491;SDS011;20010;51.488;7.232;2023-03-13T04:17:54;7.20;;;4.93;;
33491;SDS011;20010;51.488;7.232;2023-03-13T04:20:20;9.90;;;4.35;;
33491;SDS011;20010;51.488;7.232;2023-03-13T04:22:47;8.02;;;4.35;;
33491;SDS011;20010;51.488;7.232;2023-03-13T04:25:13;9.70;;;4.65;;
33491;SDS011;20010;51.488;7.232;2023-03-13T04:27:40;6.00;;;3.92;;
33491;SDS011;20010;51.488;7.232;2023-03-13T04:30:07;7.20;;;4.32;;
33491;SDS011;20010;51.488;7.232;2023-03-13T04:32:34;5.70;;;3.83;;
33491;SDS011;20010;51.488;7.232;2023-03-13T04:35:01;7.38;;;4.55;;
33491;SDS011;20010;51.488;7.232;2023-03-13T04:37:28;5.18;;;4.28;;
33491;SDS011;20010;51.488;7.232;2023-03-13T04:39:54;6.47;;;5.00;;
33491;SDS011;20010;51.488;7.232;2023-03-13T04:42:21;9.38;;;4.85;;
33491;SDS011;20010;51.488;7.232;2023-03-13T04:44:47;4.55;;;4.25;;
33491;SDS011;20010;51.488;7.232;2023-03-13T04:47:14;5.68;;;4.13;;
33491;SDS011;20010;51.488;7.232;2023-03-13T04:49:40;4.72;;;4.18;;
33491;SDS011;20010;51.488;7.232;2023-03-13T04:52:07;4.50;;;4.13;;
33491;SDS011;20010;51.488;7.232;2023-03-13T04:54:33;4.93;;;4.50;;
33491;SDS011;20010;51.488;7.232;2023-03-13T04:57:00;5.93;;;4.72;;
33491;SDS011;20010;51.488;7.232;2023-03-13T04:59:27;4.35;;;3.92;;
33491;SDS011;20010;51.488;7.232;2023-03-13T05:01:54;5.30;;;4.30;;
33491;SDS011;20010;51.488;7.232;2023-03-13T05:04:20;5.13;;;4.03;;
33491;SDS011;20010;51.488;7.232;2023-03-13T05:06:47;4.20;;;3.80;;
33491;SDS011;20010;51.488;7.232;2023-03-13T05:09:13;4.60;;;4.05;;
33491;SDS011;20010;51.488;7.232;2023-03-13T05:11:40;5.28;;;4.03;;
33491;SDS011;20010;51.488;7.232;2023-03-13T05:14:07;4.63;;;3.88;;
33491;SDS011;20010;51.488;7.232;2023-03-13T05:16:39;3.83;;;3.63;;
33491;SDS011;20010;51.488;7.232;2023-03-13T05:19:05;4.43;;;4.03;;
33491;SDS011;20010;51.488;7.232;2023-03-13T05:21:32;5.05;;;4.03;;
33491;SDS011;20010;51.488;7.232;2023-03-13T05:23:59;4.38;;;3.45;;
33491;SDS011;20010;51.488;7.232;2023-03-13T05:26:25;5.93;;;4.78;;
33491;SDS011;20010;51.488;7.232;2023-03-13T05:28:52;3.40;;;3.20;;
33491;SDS011;20010;51.488;7.232;2023-03-13T05:31:18;5.10;;;3.45;;
33491;SDS011;20010;51.488;7.232;2023-03-13T05:33:45;3.90;;;3.55;;
33491;SDS011;20010;51.488;7.232;2023-03-13T05:36:12;3.83;;;3.53;;
33491;SDS011;20010;51.488;7.232;2023-03-13T05:38:38;4.15;;;3.80;;
33491;SDS011;20010;51.488;7.232;2023-03-13T05:41:05;4.28;;;3.97;;
33491;SDS011;20010;51.488;7.232;2023-03-13T05:43:31;3.70;;;3.35;;
33491;SDS011;20010;51.488;7.232;2023-03-13T05:45:58;6.88;;;5.22;;
33491;SDS011;20010;51.488;7.232;2023-03-13T05:48:25;4.05;;;3.75;;
33491;SDS011;20010;51.488;7.232;2023-03-13T05:50:51;6.15;;;3.97;;
33491;SDS011;20010;51.488;7.232;2023-03-13T05:53:18;4.60;;;3.78;;
33491;SDS011;20010;51.488;7.232;2023-03-13T05:55:44;6.80;;;4.00;;
33491;SDS011;20010;51.488;7.232;2023-03-13T05:58:11;6.00;;;4.20;;
33491;SDS011;20010;51.488;7.232;2023-03-13T06:00:37;4.38;;;4.07;;
33491;SDS011;20010;51.488;7.232;2023-03-13T06:03:04;5.40;;;3.97;;
33491;SDS011;20010;51.488;7.232;2023-03-13T06:05:30;5.72;;;4.30;;
33491;SDS011;20010;51.488;7.232;2023-03-13T06:07:57;4.45;;;3.97;;
33491;SDS011;20010;51.488;7.232;2023-03-13T06:10:23;4.30;;;3.90;;
33491;SDS011;20010;51.488;7.232;2023-03-13T06:12:53;4.28;;;3.90;;
33491;SDS011;20010;51.488;7.232;2023-03-13T06:15:21;4.38;;;3.97;;
33491;SDS011;20010;51.488;7.232;2023-03-13T06:17:47;4.78;;;4.40;;
33491;SDS011;20010;51.488;7.232;2023-03-13T06:20:14;4.40;;;4.00;;
33491;SDS011;20010;51.488;7.232;2023-03-13T06:22:41;4.90;;;3.80;;
33491;SDS011;20010;51.488;7.232;2023-03-13T06:25:07;4.00;;;3.70;;
33491;SDS011;20010;51.488;7.232;2023-03-13T06:27:34;4.28;;;3.80;;
33491;SDS011;20010;51.488;7.232;2023-03-13T06:30:03;4.65;;;3.80;;
33491;SDS011;20010;51.488;7.232;2023-03-13T06:32:30;4.22;;;3.83;;
33491;SDS011;20010;51.488;7.232;2023-03-13T06:34:57;4.00;;;3.70;;
33491;SDS011;20010;51.488;7.232;2023-03-13T06:37:24;3.63;;;3.33;;
33491;SDS011;20010;51.488;7.232;2023-03-13T06:39:50;3.67;;;3.30;;
33491;SDS011;20010;51.488;7.232;2023-03-13T06:42:17;3.47;;;3.17;;
33491;SDS011;20010;51.488;7.232;2023-03-13T06:44:43;3.80;;;3.50;;
33491;SDS011;20010;51.488;7.232;2023-03-13T06:47:10;3.40;;;3.20;;
33491;SDS011;20010;51.488;7.232;2023-03-13T06:49:40;4.35;;;4.05;;
33491;SDS011;20010;51.488;7.232;2023-03-13T06:52:06;4.57;;;3.17;;
33491;SDS011;20010;51.488;7.232;2023-03-13T06:54:33;4.10;;;3.70;;
33491;SDS011;20010;51.488;7.232;2023-03-13T06:57:00;3.78;;;3.58;;
33491;SDS011;20010;51.488;7.232;2023-03-13T06:59:26;4.22;;;3.38;;
33491;SDS011;20010;51.488;7.232;2023-03-13T07:01:53;3.50;;;3.20;;
33491;SDS011;20010;51.488;7.232;2023-03-13T07:04:19;3.50;;;3.30;;
33491;SDS011;20010;51.488;7.232;2023-03-13T07:06:46;3.80;;;3.45;;
33491;SDS011;20010;51.488;7.232;2023-03-13T07:09:13;3.55;;;3.35;;
33491;SDS011;20010;51.488;7.232;2023-03-13T07:11:39;3.80;;;3.42;;
33491;SDS011;20010;51.488;7.232;2023-03-13T07:14:06;3.70;;;3.40;;
33491;SDS011;20010;51.488;7.232;2023-03-13T07:16:42;3.78;;;3.47;;
33491;SDS011;20010;51.488;7.232;2023-03-13T07:19:09;4.00;;;3.72;;
33491;SDS011;20010;51.488;7.232;2023-03-13T07:21:35;4.07;;;3.78;;
33491;SDS011;20010;51.488;7.232;2023-03-13T07:24:02;3.25;;;3.08;;
33491;SDS011;20010;51.488;7.232;2023-03-13T07:26:29;4.28;;;3.50;;
33491;SDS011;20010;51.488;7.232;2023-03-13T07:28:55;3.63;;;3.42;;
33491;SDS011;20010;51.488;7.232;2023-03-13T07:31:22;3.55;;;3.25;;
33491;SDS011;20010;51.488;7.232;2023-03-13T07:33:49;4.20;;;3.90;;
33491;SDS011;20010;51.488;7.232;2023-03-13T07:36:21;5.20;;;3.85;;
33491;SDS011;20010;51.488;7.232;2023-03-13T07:38:49;5.80;;;3.83;;
33491;SDS011;20010;51.488;7.232;2023-03-13T07:41:16;5.13;;;3.95;;
33491;SDS011;20010;51.488;7.232;2023-03-13T07:43:43;4.70;;;4.25;;
33491;SDS011;20010;51.488;7.232;2023-03-13T07:46:12;4.30;;;4.00;;
33491;SDS011;20010;51.488;7.232;2023-03-13T07:48:41;5.13;;;4.63;;
33491;SDS011;20010;51.488;7.232;2023-03-13T07:51:15;4.65;;;4.25;;
33491;SDS011;20010;51.488;7.232;2023-03-13T07:54:02;4.13;;;3.83;;
33491;SDS011;20010;51.488;7.232;2023-03-13T07:56:29;4.25;;;3.95;;
33491;SDS011;20010;51.488;7.232;2023-03-13T07:58:56;6.05;;;4.35;;
33491;SDS011;20010;51.488;7.232;2023-03-13T08:01:26;4.68;;;4.20;;
33491;SDS011;20010;51.488;7.232;2023-03-13T08:03:56;5.63;;;4.85;;
33491;SDS011;20010;51.488;7.232;2023-03-13T08:06:24;4.68;;;4.28;;
33491;SDS011;20010;51.488;7.232;2023-03-13T08:08:51;7.90;;;4.95;;
33491;SDS011;20010;51.488;7.232;2023-03-13T08:11:19;7.50;;;5.05;;
33491;SDS011;20010;51.488;7.232;2023-03-13T08:13:47;4.30;;;4.00;;
33491;SDS011;20010;51.488;7.232;2023-03-13T08:16:18;5.85;;;4.70;;
33491;SDS011;20010;51.488;7.232;2023-03-13T08:18:47;5.93;;;5.22;;
33491;SDS011;20010;51.488;7.232;2023-03-13T08:21:18;5.35;;;4.45;;
33491;SDS011;20010;51.488;7.232;2023-03-13T08:23:46;5.93;;;4.47;;
33491;SDS011;20010;51.488;7.232;2023-03-13T08:26:17;5.05;;;4.45;;
33491;SDS011;20010;51.488;7.232;2023-03-13T08:28:45;5.55;;;4.32;;
33491;SDS011;20010;51.488;7.232;2023-03-13T08:31:14;8.32;;;4.60;;
33491;SDS011;20010;51.488;7.232;2023-03-13T08:33:43;6.95;;;4.68;;
33491;SDS011;20010;51.488;7.232;2023-03-13T08:36:14;6.18;;;4.80;;
33491;SDS011;20010;51.488;7.232;2023-03-13T08:38:42;5.35;;;4.60;;
33491;SDS011;20010;51.488;7.232;2023-03-13T08:41:16;8.32;;;4.70;;
33491;SDS011;20010;51.488;7.232;2023-03-13T08:43:44;7.00;;;4.85;;
33491;SDS011;20010;51.488;7.232;2023-03-13T08:46:11;8.27;;;4.95;;
33491;SDS011;20010;51.488;7.232;2023-03-13T08:48:38;9.45;;;5.18;;
33491;SDS011;20010;51.488;7.232;2023-03-13T08:51:06;6.15;;;4.65;;
33491;SDS011;20010;51.488;7.232;2023-03-13T08:53:34;8.98;;;5.90;;
33491;SDS011;20010;51.488;7.232;2023-03-13T08:56:01;6.05;;;4.85;;
33491;SDS011;20010;51.488;7.232;2023-03-13T08:58:29;8.15;;;5.10;;
33491;SDS011;20010;51.488;7.232;2023-03-13T09:01:00;6.32;;;5.07;;
33491;SDS011;20010;51.488;7.232;2023-03-13T09:03:28;8.80;;;5.07;;
33491;SDS011;20010;51.488;7.232;2023-03-13T09:05:55;6.95;;;5.35;;
33491;SDS011;20010;51.488;7.232;2023-03-13T09:08:23;6.30;;;5.07;;
33491;SDS011;20010;51.488;7.232;2023-03-13T09:10:59;5.10;;;4.38;;
33491;SDS011;20010;51.488;7.232;2023-03-13T09:13:27;8.05;;;5.35;;
33491;SDS011;20010;51.488;7.232;2023-03-13T09:18:21;5.60;;;5.07;;
33491;SDS011;20010;51.488;7.232;2023-03-13T09:20:48;6.03;;;5.30;;
33491;SDS011;20010;51.488;7.232;2023-03-13T09:23:15;4.72;;;4.38;;
33491;SDS011;20010;51.488;7.232;2023-03-13T09:25:42;9.15;;;5.20;;
33491;SDS011;20010;51.488;7.232;2023-03-13T09:28:08;5.20;;;4.18;;
33491;SDS011;20010;51.488;7.232;2023-03-13T09:30:35;7.97;;;4.95;;
33491;SDS011;20010;51.488;7.232;2023-03-13T09:33:02;5.22;;;4.40;;
33491;SDS011;20010;51.488;7.232;2023-03-13T09:35:28;5.72;;;4.70;;
33491;SDS011;20010;51.488;7.232;2023-03-13T09:37:55;5.28;;;4.65;;
33491;SDS011;20010;51.488;7.232;2023-03-13T09:40:22;6.85;;;5.20;;
33491;SDS011;20010;51.488;7.232;2023-03-13T09:42:54;8.50;;;5.30;;
33491;SDS011;20010;51.488;7.232;2023-03-13T09:45:33;5.65;;;4.45;;
33491;SDS011;20010;51.488;7.232;2023-03-13T09:48:23;7.78;;;4.63;;
33491;SDS011;20010;51.488;7.232;2023-03-13T09:50:59;5.55;;;4.68;;
33491;SDS011;20010;51.488;7.232;2023-03-13T09:53:41;4.82;;;4.28;;
33491;SDS011;20010;51.488;7.232;2023-03-13T09:56:15;6.18;;;5.00;;
33491;SDS011;20010;51.488;7.232;2023-03-13T09:58:56;5.32;;;4.53;;
33491;SDS011;20010;51.488;7.232;2023-03-13T10:01:27;5.25;;;4.13;;
33491;SDS011;20010;51.488;7.232;2023-03-13T10:04:06;5.30;;;4.77;;
33491;SDS011;20010;51.488;7.232;2023-03-13T10:06:39;7.82;;;5.63;;
33491;SDS011;20010;51.488;7.232;2023-03-13T10:09:15;6.70;;;4.95;;
33491;SDS011;20010;51.488;7.232;2023-03-13T10:11:46;5.13;;;4.82;;
33491;SDS011;20010;51.488;7.232;2023-03-13T10:16:56;5.68;;;5.13;;
33491;SDS011;20010;51.488;7.232;2023-03-13T10:19:32;5.93;;;4.60;;
33491;SDS011;20010;51.488;7.232;2023-03-13T10:22:03;6.43;;;4.43;;
33491;SDS011;20010;51.488;7.232;2023-03-13T10:24:40;5.72;;;4.63;;
33491;SDS011;20010;51.488;7.232;2023-03-13T10:27:10;5.53;;;5.03;;
33491;SDS011;20010;51.488;7.232;2023-03-13T10:29:39;4.38;;;4.05;;
33491;SDS011;20010;51.488;7.232;2023-03-13T10:32:07;4.72;;;4.13;;
33491;SDS011;20010;51.488;7.232;2023-03-13T10:34:47;4.82;;;4.10;;
33491;SDS011;20010;51.488;7.232;2023-03-13T10:37:21;4.05;;;3.75;;
33491;SDS011;20010;51.488;7.232;2023-03-13T10:39:50;4.28;;;3.60;;
33491;SDS011;20010;51.488;7.232;2023-03-13T10:42:22;4.63;;;4.03;;
33491;SDS011;20010;51.488;7.232;2023-03-13T10:44:58;3.63;;;3.33;;
33491;SDS011;20010;51.488;7.232;2023-03-13T10:47:33;4.60;;;3.55;;
33491;SDS011;20010;51.488;7.232;2023-03-13T10:50:02;4.07;;;3.60;;
33491;SDS011;20010;51.488;7.232;2023-03-13T10:52:34;4.82;;;4.38;;
33491;SDS011;20010;51.488;7.232;2023-03-13T10:55:12;7.03;;;4.20;;
33491;SDS011;20010;51.488;7.232;2023-03-13T10:57:56;5.15;;;4.05;;
33491;SDS011;20010;51.488;7.232;2023-03-13T11:03:04;4.75;;;4.38;;
33491;SDS011;20010;51.488;7.232;2023-03-13T11:05:37;4.78;;;4.40;;
33491;SDS011;20010;51.488;7.232;2023-03-13T11:08:10;4.72;;;4.10;;
33491;SDS011;20010;51.488;7.232;2023-03-13T11:11:03;4.90;;;4.30;;
33491;SDS011;20010;51.488;7.232;2023-03-13T11:13:35;4.30;;;4.00;;
33491;SDS011;20010;51.488;7.232;2023-03-13T11:16:08;4.40;;;4.10;;
33491;SDS011;20010;51.488;7.232;2023-03-13T11:21:28;4.57;;;3.80;;
33491;SDS011;20010;51.488;7.232;2023-03-13T11:24:16;4.47;;;4.13;;
33491;SDS011;20010;51.488;7.232;2023-03-13T11:32:25;4.40;;;4.00;;
33491;SDS011;20010;51.488;7.232;2023-03-13T11:35:00;3.80;;;3.60;;
33491;SDS011;20010;51.488;7.232;2023-03-13T11:37:30;5.18;;;4.80;;
33491;SDS011;20010;51.488;7.232;2023-03-13T11:40:20;4.10;;;3.90;;
33491;SDS011;20010;51.488;7.232;2023-03-13T11:59:03;5.53;;;4.30;;
33491;SDS011;20010;51.488;7.232;2023-03-13T12:01:34;4.97;;;4.57;;
33491;SDS011;20010;51.488;7.232;2023-03-13T12:04:17;4.43;;;4.00;;
33491;SDS011;20010;51.488;7.232;2023-03-13T12:06:59;4.43;;;4.05;;
33491;SDS011;20010;51.488;7.232;2023-03-13T12:10:04;4.97;;;4.53;;
33491;SDS011;20010;51.488;7.232;2023-03-13T12:12:40;4.37;;;4.07;;
33491;SDS011;20010;51.488;7.232;2023-03-13T12:17:45;6.45;;;4.28;;
33491;SDS011;20010;51.488;7.232;2023-03-13T12:20:21;4.50;;;4.30;;
33491;SDS011;20010;51.488;7.232;2023-03-13T12:23:12;4.53;;;4.25;;
33491;SDS011;20010;51.488;7.232;2023-03-13T12:25:37;4.03;;;3.70;;
33491;SDS011;20010;51.488;7.232;2023-03-13T12:28:15;5.18;;;4.50;;
33491;SDS011;20010;51.488;7.232;2023-03-13T12:30:51;4.10;;;3.90;;
33491;SDS011;20010;51.488;7.232;2023-03-13T12:33:35;4.80;;;3.70;;
33491;SDS011;20010;51.488;7.232;2023-03-13T12:36:08;5.13;;;4.72;;
33491;SDS011;20010;51.488;7.232;2023-03-13T12:38:47;4.03;;;3.70;;
33491;SDS011;20010;51.488;7.232;2023-03-13T12:41:29;5.00;;;4.00;;
33491;SDS011;20010;51.488;7.232;2023-03-13T12:43:57;4.30;;;3.90;;
33491;SDS011;20010;51.488;7.232;2023-03-13T12:46:35;5.10;;;4.68;;
33491;SDS011;20010;51.488;7.232;2023-03-13T13:00:28;4.97;;;4.57;;
33491;SDS011;20010;51.488;7.232;2023-03-13T13:03:18;4.65;;;4.30;;
33491;SDS011;20010;51.488;7.232;2023-03-13T13:06:02;4.60;;;4.20;;
33491;SDS011;20010;51.488;7.232;2023-03-13T13:08:37;4.35;;;4.07;;
33491;SDS011;20010;51.488;7.232;2023-03-13T13:11:49;4.88;;;4.57;;
33491;SDS011;20010;51.488;7.232;2023-03-13T13:16:49;4.22;;;3.97;;
33491;SDS011;20010;51.488;7.232;2023-03-13T13:24:55;4.60;;;4.30;;
33491;SDS011;20010;51.488;7.232;2023-03-13T13:30:00;4.80;;;4.50;;
33491;SDS011;20010;51.488;7.232;2023-03-13T13:32:34;4.30;;;4.10;;
33491;SDS011;20010;51.488;7.232;2023-03-13T13:37:27;4.28;;;4.07;;
33491;SDS011;20010;51.488;7.232;2023-03-13T13:40:08;4.85;;;4.63;;
33491;SDS011;20010;51.488;7.232;2023-03-13T13:42:59;4.63;;;4.40;;
33491;SDS011;20010;51.488;7.232;2023-03-13T13:45:27;4.72;;;4.50;;
33491;SDS011;20010;51.488;7.232;2023-03-13T13:48:41;4.90;;;4.60;;
33491;SDS011;20010;51.488;7.232;2023-03-13T13:51:40;5.05;;;4.50;;
33491;SDS011;20010;51.488;7.232;2023-03-13T13:53:42;5.50;;;4.93;;
33491;SDS011;20010;51.488;7.232;2023-03-13T14:02:00;4.57;;;4.25;;
33491;SDS011;20010;51.488;7.232;2023-03-13T14:05:00;5.65;;;4.50;;
33491;SDS011;20010;51.488;7.232;2023-03-13T14:12:58;5.03;;;4.63;;
33491;SDS011;20010;51.488;7.232;2023-03-13T14:20:39;4.72;;;4.53;;
33491;SDS011;20010;51.488;7.232;2023-03-13T14:23:34;6.18;;;4.55;;
33491;SDS011;20010;51.488;7.232;2023-03-13T14:26:26;5.00;;;4.50;;
33491;SDS011;20010;51.488;7.232;2023-03-13T14:28:55;5.88;;;4.85;;
33491;SDS011;20010;51.488;7.232;2023-03-13T14:33:52;4.97;;;4.68;;
33491;SDS011;20010;51.488;7.232;2023-03-13T14:36:20;4.68;;;4.30;;
33491;SDS011;20010;51.488;7.232;2023-03-13T14:38:50;4.72;;;4.35;;
33491;SDS011;20010;51.488;7.232;2023-03-13T14:41:37;4.90;;;4.60;;
33491;SDS011;20010;51.488;7.232;2023-03-13T14:44:24;11.73;;;5.20;;
33491;SDS011;20010;51.488;7.232;2023-03-13T14:47:00;5.28;;;4.68;;
33491;SDS011;20010;51.488;7.232;2023-03-13T14:49:30;4.75;;;4.28;;
33491;SDS011;20010;51.488;7.232;2023-03-13T14:51:59;5.20;;;4.68;;
33491;SDS011;20010;51.488;7.232;2023-03-13T14:54:28;4.93;;;4.53;;
33491;SDS011;20010;51.488;7.232;2023-03-13T14:57:10;5.32;;;4.95;;
33491;SDS011;20010;51.488;7.232;2023-03-13T15:02:15;5.32;;;4.85;;
33491;SDS011;20010;51.488;7.232;2023-03-13T15:04:53;5.30;;;5.00;;
33491;SDS011;20010;51.488;7.232;2023-03-13T15:07:21;5.20;;;4.90;;
33491;SDS011;20010;51.488;7.232;2023-03-13T15:09:49;5.18;;;4.70;;
33491;SDS011;20010;51.488;7.232;2023-03-13T15:12:16;5.35;;;4.85;;
33491;SDS011;20010;51.488;7.232;2023-03-13T15:14:47;5.00;;;4.60;;
33491;SDS011;20010;51.488;7.232;2023-03-13T15:17:22;5.00;;;4.55;;
33491;SDS011;20010;51.488;7.232;2023-03-13T15:19:53;4.63;;;4.43;;
33491;SDS011;20010;51.488;7.232;2023-03-13T15:22:28;5.05;;;4.65;;
33491;SDS011;20010;51.488;7.232;2023-03-13T15:24:58;4.80;;;4.50;;
33491;SDS011;20010;51.488;7.232;2023-03-13T15:27:33;4.60;;;4.40;;
33491;SDS011;20010;51.488;7.232;2023-03-13T15:30:00;4.20;;;4.10;;
33491;SDS011;20010;51.488;7.232;2023-03-13T15:35:01;5.35;;;4.53;;
33491;SDS011;20010;51.488;7.232;2023-03-13T15:37:48;4.40;;;4.20;;
33491;SDS011;20010;51.488;7.232;2023-03-13T15:40:15;4.55;;;4.20;;
33491;SDS011;20010;51.488;7.232;2023-03-13T15:42:43;5.03;;;4.22;;
33491;SDS011;20010;51.488;7.232;2023-03-13T15:45:10;4.07;;;3.78;;
33491;SDS011;20010;51.488;7.232;2023-03-13T15:47:37;5.03;;;4.50;;
33491;SDS011;20010;51.488;7.232;2023-03-13T15:50:05;4.40;;;4.20;;
33491;SDS011;20010;51.488;7.232;2023-03-13T15:52:34;5.72;;;4.78;;
33491;SDS011;20010;51.488;7.232;2023-03-13T15:55:01;5.47;;;5.15;;
33491;SDS011;20010;51.488;7.232;2023-03-13T15:57:29;5.38;;;4.90;;
33491;SDS011;20010;51.488;7.232;2023-03-13T15:59:55;6.95;;;5.05;;
33491;SDS011;20010;51.488;7.232;2023-03-13T16:02:22;5.15;;;4.93;;
33491;SDS011;20010;51.488;7.232;2023-03-13T16:04:49;5.43;;;5.03;;
33491;SDS011;20010;51.488;7.232;2023-03-13T16:07:17;5.03;;;4.72;;
33491;SDS011;20010;51.488;7.232;2023-03-13T16:09:48;5.43;;;5.03;;
33491;SDS011;20010;51.488;7.232;2023-03-13T16:12:15;5.07;;;4.78;;
33491;SDS011;20010;51.488;7.232;2023-03-13T16:14:42;5.05;;;4.82;;
33491;SDS011;20010;51.488;7.232;2023-03-13T16:17:11;5.15;;;4.82;;
33491;SDS011;20010;51.488;7.232;2023-03-13T16:19:39;5.35;;;4.97;;
33491;SDS011;20010;51.488;7.232;2023-03-13T16:22:06;5.35;;;4.95;;
33491;SDS011;20010;51.488;7.232;2023-03-13T16:24:33;5.50;;;5.00;;
33491;SDS011;20010;51.488;7.232;2023-03-13T16:26:59;5.38;;;4.97;;
33491;SDS011;20010;51.488;7.232;2023-03-13T16:29:26;5.35;;;4.82;;
33491;SDS011;20010;51.488;7.232;2023-03-13T16:31:53;5.35;;;5.03;;
33491;SDS011;20010;51.488;7.232;2023-03-13T16:34:19;5.50;;;5.18;;
33491;SDS011;20010;51.488;7.232;2023-03-13T16:36:46;5.85;;;4.90;;
33491;SDS011;20010;51.488;7.232;2023-03-13T16:39:13;5.22;;;4.88;;